createdAt,value
2022-08-05T00:01:36.412Z,98511.19
2022-08-05T00:04:16.314Z,98508.73
2022-08-05T00:06:43.354Z,98510.90
2022-08-05T00:09:13.027Z,98509.85
2022-08-05T00:11:49.573Z,98510.81
2022-08-05T00:14:27.760Z,98508.33
2022-08-05T00:16:56.513Z,98505.83
2022-08-05T00:19:25.034Z,98503.61
2022-08-05T00:22:01.385Z,98501.95
2022-08-05T00:24:30.798Z,98502.41
2022-08-05T00:26:59.718Z,98503.09
2022-08-05T00:29:37.839Z,98503.73
2022-08-05T00:32:12.615Z,98497.38
2022-08-05T00:35:04.465Z,98496.23
2022-08-05T00:37:35.809Z,98494.46
2022-08-05T00:40:26.980Z,98496.22
2022-08-05T00:42:58.555Z,98498.92
2022-08-05T00:45:38.155Z,98495.80
2022-08-05T00:48:09.275Z,98495.73
2022-08-05T00:50:36.820Z,98493.93
2022-08-05T00:53:03.796Z,98490.65
2022-08-05T00:55:43.543Z,98493.09
2022-08-05T00:58:13.530Z,98489.97
2022-08-05T01:00:42.007Z,98491.67
2022-08-05T01:03:22.366Z,98488.67
2022-08-05T01:05:49.391Z,98487.51
2022-08-05T01:08:40.930Z,98484.23
2022-08-05T01:11:33.494Z,98483.11
2022-08-05T01:14:08.882Z,98480.09
2022-08-05T01:16:52.273Z,98473.69
2022-08-05T01:19:20.977Z,98470.90
2022-08-05T01:22:28.446Z,98474.14
2022-08-05T01:25:13.618Z,98474.60
2022-08-05T01:28:12.004Z,98466.57
2022-08-05T01:30:53.564Z,98466.05
2022-08-05T01:33:25.460Z,98465.10
2022-08-05T01:35:57.442Z,98464.04
2022-08-05T01:38:29.258Z,98461.63
2022-08-05T01:40:59.962Z,98461.62
2022-08-05T01:43:29.908Z,98457.86
2022-08-05T01:45:58.478Z,98458.60
2022-08-05T01:48:36.792Z,98458.58
2022-08-05T01:51:12.449Z,98458.63
2022-08-05T01:53:57.187Z,98458.69
2022-08-05T01:58:12.555Z,98453.62
2022-08-05T01:59:21.937Z,98453.51
2022-08-05T02:01:54.678Z,98453.30
2022-08-05T02:04:24.365Z,98451.08
2022-08-05T02:06:53.204Z,98447.49
2022-08-05T02:09:20.446Z,98450.11
2022-08-05T02:11:55.921Z,98447.69
2022-08-05T02:14:32.464Z,98444.93
2022-08-05T02:17:07.357Z,98443.03
2022-08-05T02:19:42.691Z,98439.50
2022-08-05T02:22:32.387Z,98437.23
2022-08-05T02:25:05.307Z,98440.31
2022-08-05T02:27:59.497Z,98436.88
2022-08-05T02:30:26.857Z,98431.27
2022-08-05T02:32:58.776Z,98435.23
2022-08-05T02:35:27.752Z,98434.39
2022-08-05T02:38:00.092Z,98431.48
2022-08-05T02:40:27.998Z,98430.59
2022-08-05T02:42:56.543Z,98430.67
2022-08-05T02:45:25.244Z,98430.50
2022-08-05T02:48:06.375Z,98432.11
2022-08-05T02:50:43.970Z,98434.34
2022-08-05T02:53:18.499Z,98433.83
2022-08-05T02:55:59.568Z,98433.73
2022-08-05T02:58:30.305Z,98433.09
2022-08-05T03:01:01.750Z,98432.59
2022-08-05T03:03:33.697Z,98432.25
2022-08-05T03:06:55.330Z,98431.65
2022-08-05T03:08:53.027Z,98432.59
2022-08-05T03:11:55.463Z,98435.56
2022-08-05T03:14:13.655Z,98428.27
2022-08-05T03:16:41.134Z,98426.41
2022-08-05T03:19:12.873Z,98427.70
2022-08-05T03:21:55.732Z,98426.61
2022-08-05T03:24:29.379Z,98427.38
2022-08-05T03:26:58.915Z,98427.34
2022-08-05T03:29:45.680Z,98430.28
2022-08-05T03:32:15.625Z,98428.24
2022-08-05T03:34:51.073Z,98427.06
2022-08-05T03:37:21.146Z,98424.86
2022-08-05T03:40:01.912Z,98426.69
2022-08-05T03:42:32.227Z,98426.27
2022-08-05T03:45:01.815Z,98427.63
2022-08-05T03:47:47.492Z,98428.03
2022-08-05T03:50:16.284Z,98430.69
2022-08-05T03:55:50.017Z,98427.98
2022-08-05T03:56:10.514Z,98423.31
2022-08-05T03:58:41.084Z,98429.63
2022-08-05T04:01:11.263Z,98431.52
2022-08-05T04:04:09.769Z,98432.08
2022-08-05T04:06:30.836Z,98432.42
2022-08-05T04:08:58.942Z,98429.39
2022-08-05T04:11:50.667Z,98429.38
2022-08-05T04:14:17.940Z,98432.29
2022-08-05T04:16:45.443Z,98433.62
2022-08-05T04:19:13.304Z,98433.03
2022-08-05T04:22:09.703Z,98435.80
2022-08-05T04:24:27.840Z,98437.24
2022-08-05T04:26:58.099Z,98439.30
2022-08-05T04:29:25.206Z,98436.23
2022-08-05T04:31:54.168Z,98437.98
2022-08-05T04:34:32.803Z,98431.24
2022-08-05T04:37:03.102Z,98426.27
2022-08-05T04:39:31.473Z,98426.77
2022-08-05T04:42:00.280Z,98427.45
2022-08-05T04:44:30.304Z,98426.14
2022-08-05T04:46:59.212Z,98422.98
2022-08-05T04:49:38.348Z,98423.46
2022-08-05T04:52:14.590Z,98418.85
2022-08-05T04:54:42.048Z,98422.90
2022-08-05T04:57:08.935Z,98426.63
2022-08-05T04:59:38.484Z,98428.39
2022-08-05T05:02:36.304Z,98427.81
2022-08-05T05:05:02.805Z,98418.30
2022-08-05T05:07:32.144Z,98420.23
2022-08-05T05:10:02.252Z,98421.02
2022-08-05T05:12:30.077Z,98419.74
2022-08-05T05:14:56.919Z,98413.79
2022-08-05T05:17:56.694Z,98413.84
2022-08-05T05:20:12.595Z,98419.69
2022-08-05T05:22:40.798Z,98415.94
2022-08-05T05:25:16.620Z,98416.16
2022-08-05T05:27:48.652Z,98420.27
2022-08-05T05:30:29.158Z,98420.66
2022-08-05T05:33:00.531Z,98425.23
2022-08-05T05:35:34.491Z,98424.14
2022-08-05T05:38:09.236Z,98424.39
2022-08-05T05:40:43.830Z,98427.16
2022-08-05T05:43:27.515Z,98426.79
2022-08-05T05:46:03.918Z,98426.12
2022-08-05T05:48:32.940Z,98429.91
2022-08-05T05:51:14.862Z,98424.45
2022-08-05T05:53:45.942Z,98421.20
2022-08-05T05:56:26.013Z,98419.34
2022-08-05T05:59:02.940Z,98420.61
2022-08-05T06:01:36.966Z,98419.09
2022-08-05T06:04:07.670Z,98417.75
2022-08-05T06:06:35.672Z,98413.73
2022-08-05T06:09:07.630Z,98411.61
2022-08-05T06:11:34.667Z,98413.79
2022-08-05T06:14:02.103Z,98414.47
2022-08-05T06:16:32.814Z,98414.66
2022-08-05T06:19:05.675Z,98417.48
2022-08-05T06:21:37.538Z,98417.90
2022-08-05T06:24:12.050Z,98416.36
2022-08-05T06:26:52.185Z,98417.27
2022-08-05T06:29:44.264Z,98416.37
2022-08-05T06:32:26.129Z,98415.34
2022-08-05T06:34:57.908Z,98415.17
2022-08-05T06:37:52.261Z,98408.79
2022-08-05T06:40:13.965Z,98410.52
2022-08-05T06:42:45.936Z,98410.52
2022-08-05T06:45:21.101Z,98406.98
2022-08-05T06:48:44.248Z,98405.73
2022-08-05T06:50:35.672Z,98405.80
2022-08-05T06:53:11.404Z,98404.25
2022-08-05T06:55:42.060Z,98406.30
2022-08-05T06:58:20.057Z,98403.49
2022-08-05T07:01:01.191Z,98400.42
2022-08-05T07:03:32.480Z,98405.79
2022-08-05T07:06:05.786Z,98400.65
2022-08-05T07:08:47.148Z,98402.29
2022-08-05T07:11:15.859Z,98401.52
2022-08-05T07:14:00.158Z,98396.71
2022-08-05T07:18:01.614Z,98396.80
2022-08-05T07:20:16.763Z,98395.45
2022-08-05T07:22:22.148Z,98389.90
2022-08-05T07:24:59.097Z,98392.48
2022-08-05T07:27:27.361Z,98393.17
2022-08-05T07:30:27.640Z,98394.48
2022-08-05T07:32:46.262Z,98396.92
2022-08-05T07:36:02.940Z,98392.52
2022-08-05T07:38:07.109Z,98391.54
2022-08-05T07:40:39.563Z,98394.04
2022-08-05T07:43:14.496Z,98393.52
2022-08-05T07:45:57.872Z,98393.53
2022-08-05T07:49:02.627Z,98389.46
2022-08-05T07:51:23.520Z,98388.94
2022-08-05T07:54:02.869Z,98389.34
2022-08-05T07:57:01.344Z,98390.27
2022-08-05T07:59:17.127Z,98386.03
2022-08-05T08:01:52.427Z,98381.77
2022-08-05T08:04:37.307Z,98382.64
2022-08-05T08:07:07.062Z,98384.84
2022-08-05T08:09:35.262Z,98382.27
2022-08-05T08:12:14.322Z,98383.21
2022-08-05T08:14:46.809Z,98382.06
2022-08-05T08:17:15.731Z,98380.74
2022-08-05T08:20:21.616Z,98383.52
2022-08-05T08:22:34.196Z,98388.19
2022-08-05T08:25:03.159Z,98383.74
2022-08-05T08:27:40.263Z,98381.57
2022-08-05T08:30:29.613Z,98384.21
2022-08-05T08:33:13.604Z,98383.00
2022-08-05T08:35:52.937Z,98380.14
2022-08-05T08:38:35.108Z,98379.75
2022-08-05T08:41:08.721Z,98379.61
2022-08-05T08:45:24.013Z,98380.90
2022-08-05T08:46:26.266Z,98381.03
2022-08-05T08:49:07.917Z,98378.36
2022-08-05T08:52:03.359Z,98375.92
2022-08-05T08:54:36.304Z,98375.16
2022-08-05T08:57:11.466Z,98381.15
2022-08-05T08:59:38.825Z,98378.34
2022-08-05T09:02:09.377Z,98369.23
2022-08-05T09:04:47.594Z,98371.61
2022-08-05T09:07:28.974Z,98372.63
2022-08-05T09:10:07.109Z,98375.15
2022-08-05T09:12:35.290Z,98368.32
2022-08-05T09:15:06.421Z,98362.90
2022-08-05T09:17:42.782Z,98365.98
2022-08-05T09:20:36.365Z,98361.59
2022-08-05T09:23:21.979Z,98362.81
2022-08-05T09:26:00.969Z,98359.81
2022-08-05T09:28:34.218Z,98356.67
2022-08-05T09:31:43.312Z,98352.77
2022-08-05T09:34:01.849Z,98350.40
2022-08-05T09:36:45.871Z,98344.27
2022-08-05T09:39:39.441Z,98344.76
2022-08-05T09:42:17.421Z,98341.30
2022-08-05T09:44:56.126Z,98337.93
2022-08-05T09:47:26.185Z,98339.27
2022-08-05T09:50:02.255Z,98334.36
2022-08-05T09:52:35.045Z,98332.77
2022-08-05T09:55:56.506Z,98332.27
2022-08-05T09:57:59.697Z,98330.61
2022-08-05T10:00:27.605Z,98326.06
2022-08-05T10:02:58.469Z,98320.95
2022-08-05T10:05:28.657Z,98323.42
2022-08-05T10:08:35.509Z,98320.00
2022-08-05T10:10:44.743Z,98318.30
2022-08-05T10:13:12.271Z,98316.88
2022-08-05T10:15:41.860Z,98315.35
2022-08-05T10:18:20.286Z,98317.48
2022-08-05T10:20:51.842Z,98320.20
2022-08-05T10:23:55.258Z,98318.27
2022-08-05T10:26:14.180Z,98310.13
2022-08-05T10:28:46.349Z,98313.35
2022-08-05T10:32:51.579Z,98311.45
2022-08-05T10:34:03.757Z,98308.90
2022-08-05T10:36:36.649Z,98302.19
2022-08-05T10:39:11.745Z,98298.47
2022-08-05T10:41:59.148Z,98299.11
2022-08-05T10:44:29.648Z,98293.48
2022-08-05T10:46:57.794Z,98290.98
2022-08-05T10:49:33.269Z,98287.71
2022-08-05T10:52:05.404Z,98286.54
2022-08-05T10:55:10.162Z,98284.27
2022-08-05T10:57:44.723Z,98282.52
2022-08-05T11:00:19.577Z,98282.56
2022-08-05T11:03:23.239Z,98282.59
2022-08-05T11:06:15.493Z,98283.17
2022-08-05T11:09:17.259Z,98283.39
2022-08-05T11:11:53.581Z,98279.42
2022-08-05T11:15:01.274Z,98277.86
2022-08-05T11:17:57.083Z,98277.11
2022-08-05T11:20:51.779Z,98274.42
2022-08-05T11:24:04.264Z,98275.41
2022-08-05T11:26:31.915Z,98269.77
2022-08-05T11:29:12.667Z,98269.71
2022-08-05T11:31:57.971Z,98269.83
2022-08-05T11:34:47.504Z,98273.66
2022-08-05T11:38:30.467Z,98272.13
2022-08-05T11:41:34.277Z,98271.48
2022-08-05T11:44:06.252Z,98264.88
2022-08-05T11:46:36.553Z,98266.94
2022-08-05T11:49:08.097Z,98267.01
2022-08-05T11:51:54.127Z,98270.31
2022-08-05T11:54:33.321Z,98271.90
2022-08-05T11:57:08.384Z,98267.45
2022-08-05T11:59:50.906Z,98268.21
2022-08-05T12:02:29.855Z,98267.46
2022-08-05T12:04:59.990Z,98262.61
2022-08-05T12:08:04.395Z,98259.38
2022-08-05T12:10:39.076Z,98256.44
2022-08-05T12:13:17.388Z,98256.50
2022-08-05T12:15:49.990Z,98255.89
2022-08-05T12:18:32.735Z,98257.48
2022-08-05T12:21:17.443Z,98252.52
2022-08-05T12:23:53.646Z,98253.12
2022-08-05T12:26:21.102Z,98246.70
2022-08-05T12:28:50.640Z,98245.14
2022-08-05T12:31:32.688Z,98243.48
2022-08-05T12:34:07.833Z,98245.06
2022-08-05T12:36:37.137Z,98247.80
2022-08-05T12:39:06.905Z,98244.81
2022-08-05T12:41:36.316Z,98248.88
2022-08-05T12:44:14.190Z,98246.70
2022-08-05T12:46:45.653Z,98243.28
2022-08-05T12:49:19.095Z,98238.95
2022-08-05T12:52:13.049Z,98238.98
2022-08-05T12:54:36.052Z,98231.41
2022-08-05T12:57:09.569Z,98229.60
2022-08-05T13:01:56.895Z,98229.77
2022-08-05T13:02:41.783Z,98225.88
2022-08-05T13:05:12.701Z,98224.51
2022-08-05T13:07:59.704Z,98219.45
2022-08-05T13:10:31.284Z,98216.48
2022-08-05T13:12:58.781Z,98214.64
2022-08-05T13:15:41.559Z,98211.72
2022-08-05T13:18:20.189Z,98216.41
2022-08-05T13:20:49.324Z,98210.46
2022-08-05T13:23:18.320Z,98209.85
2022-08-05T13:25:59.616Z,98211.56
2022-08-05T13:28:29.039Z,98209.73
2022-08-05T13:30:55.919Z,98202.10
2022-08-05T13:34:24.931Z,98205.02
2022-08-05T13:36:14.560Z,98197.21
2022-08-05T13:38:42.928Z,98195.69
2022-08-05T13:41:11.793Z,98196.98
2022-08-05T13:43:44.737Z,98191.19
2022-08-05T13:46:30.858Z,98187.44
2022-08-05T13:49:10.061Z,98194.38
2022-08-05T13:51:40.873Z,98189.00
2022-08-05T13:54:12.498Z,98190.27
2022-08-05T13:56:45.587Z,98189.15
2022-08-05T13:59:24.040Z,98186.77
2022-08-05T14:01:56.384Z,98184.83
2022-08-05T14:04:42.254Z,98183.69
2022-08-05T14:07:24.893Z,98180.91
2022-08-05T14:09:53.783Z,98172.14
2022-08-05T14:12:32.645Z,98178.94
2022-08-05T14:16:06.890Z,98175.55
2022-08-05T14:17:55.085Z,98171.34
2022-08-05T14:20:27.932Z,98178.40
2022-08-05T14:22:55.319Z,98176.83
2022-08-05T14:25:28.181Z,98176.50
2022-08-05T14:27:55.846Z,98174.34
2022-08-05T14:30:23.189Z,98178.48
2022-08-05T14:32:53.825Z,98179.48
2022-08-05T14:35:22.800Z,98176.27
2022-08-05T14:37:54.986Z,98173.64
2022-08-05T14:40:24.377Z,98169.80
2022-08-05T14:42:52.646Z,98167.98
2022-08-05T14:45:19.657Z,98167.30
2022-08-05T14:48:03.183Z,98167.66
2022-08-05T14:50:39.680Z,98164.98
2022-08-05T14:53:07.027Z,98161.73
2022-08-05T14:55:39.568Z,98160.05
2022-08-05T14:58:12.235Z,98156.79
2022-08-05T15:00:59.347Z,98157.42
2022-08-05T15:03:33.606Z,98156.84
2022-08-05T15:06:07.642Z,98158.76
2022-08-05T15:08:58.282Z,98153.46
2022-08-05T15:11:52.527Z,98142.84
2022-08-05T15:14:34.210Z,98149.91
2022-08-05T15:17:03.902Z,98144.81
2022-08-05T15:19:31.224Z,98145.70
2022-08-05T15:22:00.931Z,98144.36
2022-08-05T15:24:28.995Z,98143.92
2022-08-05T15:26:57.115Z,98143.27
2022-08-05T15:29:30.224Z,98141.71
2022-08-05T15:32:02.302Z,98139.84
2022-08-05T15:34:32.991Z,98136.47
2022-08-05T15:37:06.303Z,98144.33
2022-08-05T15:41:01.462Z,98138.05
2022-08-05T15:42:57.026Z,98138.41
2022-08-05T15:45:16.538Z,98138.38
2022-08-05T15:47:46.422Z,98132.64
2022-08-05T15:50:15.841Z,98132.17
2022-08-05T15:52:53.089Z,98127.23
2022-08-05T15:55:25.181Z,98133.04
2022-08-05T15:58:09.705Z,98134.14
2022-08-05T16:00:50.518Z,98133.31
2022-08-05T16:03:23.735Z,98132.45
2022-08-05T16:05:52.728Z,98135.45
2022-08-05T16:08:23.013Z,98133.02
2022-08-05T16:10:57.489Z,98127.33
2022-08-05T16:13:34.299Z,98124.80
2022-08-05T16:16:03.870Z,98125.41
2022-08-05T16:18:33.427Z,98130.04
2022-08-05T16:21:04.365Z,98131.79
2022-08-05T16:23:53.284Z,98125.32
2022-08-05T16:26:20.123Z,98127.63
2022-08-05T16:28:55.420Z,98124.82
2022-08-05T16:31:22.687Z,98135.15
2022-08-05T16:33:52.200Z,98134.02
2022-08-05T16:36:23.824Z,98129.36
2022-08-05T16:38:54.409Z,98129.85
2022-08-05T16:42:27.673Z,98124.92
2022-08-05T16:44:11.665Z,98125.92
2022-08-05T16:46:41.170Z,98122.89
2022-08-05T16:49:09.955Z,98123.98
2022-08-05T16:51:42.926Z,98122.52
2022-08-05T16:54:24.041Z,98120.21
2022-08-05T16:56:56.106Z,98122.80
2022-08-05T16:59:23.030Z,98120.70
2022-08-05T17:01:53.008Z,98123.33
2022-08-05T17:04:26.425Z,98123.10
2022-08-05T17:06:55.632Z,98129.17
2022-08-05T17:09:24.226Z,98128.35
2022-08-05T17:11:59.444Z,98134.80
2022-08-05T17:14:37.036Z,98133.34
2022-08-05T17:17:06.740Z,98135.98
2022-08-05T17:19:43.899Z,98135.52
2022-08-05T17:22:25.164Z,98136.55
2022-08-05T17:24:57.675Z,98135.44
2022-08-05T17:27:33.788Z,98137.27
2022-08-05T17:30:02.892Z,98137.70
2022-08-05T17:32:32.155Z,98138.44
2022-08-05T17:35:00.740Z,98138.96
2022-08-05T17:37:41.648Z,98138.11
2022-08-05T17:40:15.312Z,98142.95
2022-08-05T17:42:50.967Z,98146.06
2022-08-05T17:45:22.409Z,98142.32
2022-08-05T17:47:54.647Z,98146.98
2022-08-05T17:50:29.614Z,98149.64
2022-08-05T17:52:59.415Z,98150.22
2022-08-05T17:55:34.526Z,98148.53
2022-08-05T17:58:12.616Z,98150.34
2022-08-05T18:00:45.214Z,98147.25
2022-08-05T18:06:11.128Z,98150.47
2022-08-05T18:08:38.568Z,98154.61
2022-08-05T18:11:07.876Z,98154.61
2022-08-05T18:13:53.990Z,98156.30
2022-08-05T18:16:20.834Z,98161.28
2022-08-05T18:18:50.060Z,98162.36
2022-08-05T18:21:19.939Z,98161.81
2022-08-05T18:23:53.779Z,98165.20
2022-08-05T18:26:27.517Z,98162.07
2022-08-05T18:28:57.261Z,98167.13
2022-08-05T18:31:25.139Z,98169.64
2022-08-05T18:33:52.774Z,98172.39
2022-08-05T18:36:20.121Z,98169.92
2022-08-05T18:38:55.231Z,98176.41
2022-08-05T18:41:56.551Z,98178.32
2022-08-05T18:44:09.052Z,98178.76
2022-08-05T18:46:36.006Z,98177.36
2022-08-05T18:49:23.373Z,98178.55
2022-08-05T18:52:13.103Z,98177.35
2022-08-05T18:54:41.298Z,98180.59
2022-08-05T18:57:15.210Z,98184.85
2022-08-05T19:00:01.654Z,98183.61
2022-08-05T19:02:29.705Z,98183.52
2022-08-05T19:05:02.431Z,98183.18
2022-08-05T19:07:48.240Z,98188.82
2022-08-05T19:10:17.207Z,98193.71
2022-08-05T19:12:45.936Z,98180.73
2022-08-05T19:15:56.825Z,98192.09
2022-08-05T19:18:09.814Z,98190.85
2022-08-05T19:20:41.298Z,98189.29
2022-08-05T19:24:04.048Z,98198.38
2022-08-05T19:26:01.595Z,98199.59
2022-08-05T19:28:30.849Z,98205.91
2022-08-05T19:30:57.936Z,98207.51
2022-08-05T19:33:35.503Z,98210.12
2022-08-05T19:36:06.286Z,98210.39
2022-08-05T19:38:35.903Z,98212.39
2022-08-05T19:41:06.780Z,98217.27
2022-08-05T19:44:06.164Z,98215.60
2022-08-05T19:46:29.229Z,98215.58
2022-08-05T19:48:56.851Z,98221.55
2022-08-05T19:52:08.662Z,98224.84
2022-08-05T19:54:21.739Z,98223.28
2022-08-05T19:56:59.087Z,98220.37
2022-08-05T20:00:00.938Z,98216.30
2022-08-05T20:02:14.986Z,98214.89
2022-08-05T20:04:45.904Z,98215.73
2022-08-05T20:07:14.115Z,98215.81
2022-08-05T20:09:53.776Z,98219.68
2022-08-05T20:12:24.173Z,98219.13
2022-08-05T20:14:53.073Z,98217.13
2022-08-05T20:17:23.312Z,98217.40
2022-08-05T20:19:56.868Z,98218.72
2022-08-05T20:22:27.012Z,98218.39
2022-08-05T20:24:55.573Z,98220.67
2022-08-05T20:27:27.385Z,98220.34
2022-08-05T20:30:10.341Z,98222.05
2022-08-05T20:32:37.624Z,98215.74
2022-08-05T20:35:12.168Z,98216.26
2022-08-05T20:38:06.207Z,98222.91
2022-08-05T20:40:27.076Z,98227.14
2022-08-05T20:42:55.934Z,98236.92
2022-08-05T20:45:47.683Z,98236.02
2022-08-05T20:48:16.629Z,98233.94
2022-08-05T20:50:45.519Z,98233.35
2022-08-05T20:53:16.038Z,98230.48
2022-08-05T20:56:08.731Z,98236.23
2022-08-05T20:58:37.003Z,98238.83
2022-08-05T21:01:04.974Z,98238.06
2022-08-05T21:03:34.353Z,98241.98
2022-08-05T21:06:01.920Z,98239.49
2022-08-05T21:08:35.802Z,98242.32
2022-08-05T21:11:11.910Z,98241.52
2022-08-05T21:13:48.175Z,98235.19
2022-08-05T21:16:29.738Z,98238.23
2022-08-05T21:19:00.258Z,98242.39
2022-08-05T21:21:44.232Z,98243.29
2022-08-05T21:24:19.484Z,98239.92
2022-08-05T21:26:53.238Z,98244.45
2022-08-05T21:29:31.896Z,98247.95
2022-08-05T21:31:59.966Z,98248.28
2022-08-05T21:34:28.406Z,98251.59
2022-08-05T21:36:58.747Z,98253.20
2022-08-05T21:39:26.841Z,98250.04
2022-08-05T21:42:01.602Z,98251.96
2022-08-05T21:44:31.655Z,98254.85
2022-08-05T21:46:59.554Z,98254.83
2022-08-05T21:49:58.951Z,98252.46
2022-08-05T21:52:27.276Z,98259.02
2022-08-05T21:54:57.592Z,98258.64
2022-08-05T21:57:33.736Z,98256.26
2022-08-05T22:00:06.454Z,98253.91
2022-08-05T22:02:42.925Z,98257.86
2022-08-05T22:05:12.180Z,98262.36
2022-08-05T22:08:02.021Z,98259.09
2022-08-05T22:10:27.600Z,98260.27
2022-08-05T22:12:57.709Z,98260.64
2022-08-05T22:16:01.211Z,98257.89
2022-08-05T22:18:14.621Z,98263.97
2022-08-05T22:20:44.124Z,98266.86
2022-08-05T22:24:00.918Z,98269.70
2022-08-05T22:26:29.451Z,98269.27
2022-08-05T22:28:56.783Z,98260.36
2022-08-05T22:31:25.095Z,98262.39
2022-08-05T22:34:00.975Z,98263.20
2022-08-05T22:36:29.039Z,98260.14
2022-08-05T22:38:56.790Z,98269.05
2022-08-05T22:42:04.834Z,98265.21
2022-08-05T22:44:12.013Z,98264.40
2022-08-05T22:46:41.262Z,98264.55
2022-08-05T22:49:12.345Z,98261.19
2022-08-05T22:52:06.445Z,98263.05
2022-08-05T22:54:36.468Z,98261.51
2022-08-05T22:57:05.646Z,98257.34
2022-08-05T22:59:43.852Z,98259.92
2022-08-05T23:02:17.258Z,98260.17
2022-08-05T23:04:52.167Z,98259.90
2022-08-05T23:07:22.489Z,98262.38
2022-08-05T23:09:57.554Z,98263.09
2022-08-05T23:12:32.936Z,98256.53
2022-08-05T23:15:03.437Z,98255.09
2022-08-05T23:17:34.249Z,98255.04
2022-08-05T23:20:16.296Z,98253.19
2022-08-05T23:22:47.087Z,98250.38
2022-08-05T23:25:17.184Z,98250.90
2022-08-05T23:28:02.058Z,98248.15
2022-08-05T23:30:29.121Z,98252.92
2022-08-05T23:32:58.851Z,98255.98
2022-08-05T23:35:28.603Z,98251.52
2022-08-05T23:38:01.978Z,98251.74
2022-08-05T23:40:28.918Z,98249.06
2022-08-05T23:42:55.823Z,98249.53
2022-08-05T23:45:23.639Z,98244.30
2022-08-05T23:47:53.904Z,98244.02
2022-08-05T23:50:26.616Z,98242.57
2022-08-05T23:52:55.403Z,98248.49
2022-08-05T23:55:22.687Z,98245.52
2022-08-05T23:57:58.218Z,98248.42
